Time;durP1;ratioP1;P1;durP2;ratioP2;P2;SDS_P1;SDS_P2;PMS_P1;PMS_P2;Temp;Humidity;BMP_temperature;BMP_pressure;BME280_temperature;BME280_humidity;BME280_pressure;Samples;Min_cycle;Max_cycle;Signal;HPM_P1;HPM_P2
2022/01/24 00:01:42;;;;;;;9.07;5.72;;;6.40;99.90;;;;;;5003053;28;20041;-74
2022/01/24 00:04:08;;;;;;;9.18;5.97;;;6.40;99.90;;;;;;5019414;28;20104;-74
2022/01/24 00:06:35;;;;;;;8.52;5.43;;;6.40;99.90;;;;;;5014731;28;20056;-74
2022/01/24 00:09:03;;;;;;;7.90;5.97;;;6.40;99.90;;;;;;5035962;28;20625;-74
2022/01/24 00:11:43;;;;;;;8.73;5.68;;;6.40;99.90;;;;;;5016944;28;20041;-74
2022/01/24 00:17:04;;;;;;;8.10;5.80;;;6.40;99.90;;;;;;5016114;28;20050;-74
2022/01/24 00:27:43;;;;;;;10.02;6.10;;;6.40;99.90;;;;;;5005399;28;20465;-74
2022/01/24 00:30:09;;;;;;;9.02;5.60;;;6.40;99.90;;;;;;5002599;28;20042;-74
2022/01/24 00:32:35;;;;;;;8.85;5.75;;;6.40;99.90;;;;;;5015498;28;20046;-74
2022/01/24 00:35:00;;;;;;;8.48;5.72;;;6.40;99.90;;;;;;5018042;28;20106;-74
2022/01/24 00:37:30;;;;;;;10.85;5.90;;;6.30;99.90;;;;;;4993614;28;20398;-74
2022/01/24 00:39:57;;;;;;;7.22;5.72;;;6.30;99.90;;;;;;4996301;28;20057;-74
2022/01/24 00:42:46;;;;;;;7.85;5.63;;;6.40;99.90;;;;;;4985282;28;20569;-74
2022/01/24 00:48:30;;;;;;;8.85;5.43;;;6.30;99.90;;;;;;5012544;28;20108;-74
2022/01/24 00:55:42;;;;;;;10.85;5.80;;;6.30;99.90;;;;;;4999590;28;20056;-74
2022/01/24 00:58:08;;;;;;;7.97;5.40;;;6.30;99.90;;;;;;4993265;28;20049;-74
2022/01/24 01:00:35;;;;;;;7.18;4.85;;;6.80;99.90;;;;;;5011722;28;20054;-74
2022/01/24 01:03:01;;;;;;;8.20;5.80;;;6.20;99.90;;;;;;5016300;28;20050;-74
2022/01/24 01:05:55;;;;;;;10.02;5.45;;;6.20;99.90;;;;;;5012550;28;20140;-74
2022/01/24 01:19:19;;;;;;;8.73;5.50;;;6.10;99.90;;;;;;5009367;28;20080;-74
2022/01/24 01:21:45;;;;;;;9.23;6.13;;;6.60;99.90;;;;;;4993348;28;20053;-74
2022/01/24 01:24:11;;;;;;;7.80;5.35;;;6.10;99.90;;;;;;5009092;28;20041;-74
2022/01/24 01:26:43;;;;;;;9.20;6.38;;;6.10;99.90;;;;;;4976346;28;20167;-74
2022/01/24 01:29:20;;;;;;;10.88;6.63;;;6.30;99.90;;;;;;5009487;28;20115;-74
2022/01/24 01:32:04;;;;;;;9.32;6.50;;;6.10;99.90;;;;;;4992944;28;20103;-74
2022/01/24 01:53:54;;;;;;;15.25;7.90;;;6.00;99.90;;;;;;5014634;28;20084;-74
2022/01/24 01:56:18;;;;;;;14.70;8.55;;;6.80;99.90;;;;;;5022263;28;20037;-74
2022/01/24 01:58:44;;;;;;;14.88;8.57;;;6.00;99.90;;;;;;5023945;28;20057;-74
2022/01/24 02:01:10;;;;;;;15.02;7.55;;;6.00;99.90;;;;;;4960751;28;20046;-74
2022/01/24 02:03:37;;;;;;;13.00;7.93;;;6.00;99.90;;;;;;5025438;28;20076;-74
2022/01/24 02:06:03;;;;;;;15.13;9.93;;;5.80;99.90;;;;;;4976586;28;20409;-74
2022/01/24 02:08:31;;;;;;;16.33;9.27;;;6.00;99.90;;;;;;4975996;28;20050;-74
2022/01/24 02:10:58;;;;;;;17.85;9.55;;;6.00;99.90;;;;;;5008900;28;20042;-74
2022/01/24 02:13:26;;;;;;;16.45;9.52;;;6.00;99.90;;;;;;5008525;28;20053;-74
2022/01/24 02:18:41;;;;;;;;;;;6.00;99.90;;;;;;5009460;28;20181;-74
2022/01/24 02:21:23;;;;;;;17.30;9.70;;;6.00;99.90;;;;;;5008648;28;20240;-74
2022/01/24 02:23:49;;;;;;;17.45;10.00;;;6.90;99.90;;;;;;4992747;28;20060;-74
2022/01/24 02:26:20;;;;;;;18.05;10.23;;;5.40;99.90;;;;;;5008084;28;20389;-75
2022/01/24 02:29:31;;;;;;;17.52;10.32;;;6.00;99.90;;;;;;5008486;28;20902;-74
2022/01/24 02:34:16;;;;;;;17.10;9.90;;;5.90;99.90;;;;;;5011207;28;20050;-75
2022/01/24 02:36:42;;;;;;;19.42;11.05;;;6.10;99.90;;;;;;5010156;28;20053;-74
2022/01/24 02:50:05;;;;;;;18.83;10.52;;;5.90;99.90;;;;;;5011529;28;20042;-75
2022/01/24 02:52:31;;;;;;;19.90;10.82;;;5.90;99.90;;;;;;5021341;28;20081;-74
2022/01/24 02:54:56;;;;;;;19.98;11.00;;;5.90;99.90;;;;;;4993474;28;20077;-75
2022/01/24 02:57:22;;;;;;;19.27;10.85;;;5.90;99.90;;;;;;5003904;28;20479;-75
2022/01/24 02:59:48;;;;;;;19.55;11.43;;;5.90;99.90;;;;;;5009533;28;20046;-74
2022/01/24 03:02:14;;;;;;;20.52;10.65;;;5.90;99.90;;;;;;5000177;28;20092;-74
2022/01/24 03:04:39;;;;;;;21.10;11.23;;;5.90;99.90;;;;;;4998779;28;20053;-74
2022/01/24 03:07:05;;;;;;;19.63;10.57;;;5.90;99.90;;;;;;5013379;28;20061;-74
2022/01/24 03:09:33;;;;;;;20.33;10.73;;;6.20;99.90;;;;;;4982231;28;20107;-74
2022/01/24 03:12:06;;;;;;;19.42;10.00;;;5.90;99.90;;;;;;4997656;28;20099;-74
2022/01/24 03:14:34;;;;;;;16.58;9.52;;;5.90;99.90;;;;;;5007559;28;20077;-74
2022/01/24 03:17:07;;;;;;;15.95;9.25;;;5.90;99.90;;;;;;4996991;28;20050;-74
2022/01/24 03:19:33;;;;;;;15.95;9.45;;;5.90;99.90;;;;;;5023511;28;20054;-75
2022/01/24 03:21:59;;;;;;;16.20;8.85;;;6.70;99.90;;;;;;5013475;28;20384;-74
2022/01/24 03:24:25;;;;;;;15.15;9.35;;;6.60;99.90;;;;;;5000199;28;20048;-74
2022/01/24 03:26:50;;;;;;;16.23;8.68;;;5.80;99.90;;;;;;4988845;28;20517;-74
2022/01/24 03:29:16;;;;;;;15.77;8.93;;;5.80;99.90;;;;;;4981098;28;20111;-74
2022/01/24 03:31:43;;;;;;;15.77;8.88;;;5.80;99.90;;;;;;5001085;28;20386;-74
2022/01/24 03:34:09;;;;;;;17.20;9.25;;;5.90;99.90;;;;;;5011171;28;20053;-74
2022/01/24 03:36:35;;;;;;;14.63;9.32;;;5.80;99.90;;;;;;5000800;28;20038;-73
2022/01/24 03:39:01;;;;;;;15.60;9.57;;;6.10;99.90;;;;;;4997289;28;20042;-74
2022/01/24 03:41:27;;;;;;;17.20;9.13;;;5.80;99.90;;;;;;4952534;28;20116;-74
2022/01/24 03:44:00;;;;;;;16.80;9.05;;;5.80;99.90;;;;;;4975114;28;20053;-74
2022/01/24 03:46:28;;;;;;;16.88;9.15;;;5.80;99.90;;;;;;4992400;28;20120;-73
2022/01/24 03:49:06;;;;;;;18.77;9.70;;;6.10;99.90;;;;;;4991875;28;20277;-74
2022/01/24 03:51:32;;;;;;;16.90;9.32;;;5.80;99.90;;;;;;4989837;28;20049;-73
2022/01/24 03:53:59;;;;;;;17.58;9.82;;;6.30;99.90;;;;;;4990847;28;20042;-74
2022/01/24 03:56:25;;;;;;;18.98;9.52;;;5.80;99.90;;;;;;4991195;28;20057;-74
2022/01/24 03:58:51;;;;;;;17.90;10.10;;;6.00;99.90;;;;;;4992163;28;20038;-74
2022/01/24 04:01:17;;;;;;;17.40;9.63;;;5.90;99.90;;;;;;4990306;28;20499;-74
2022/01/24 04:03:43;;;;;;;16.60;9.93;;;5.80;99.90;;;;;;4970952;28;20060;-74
2022/01/24 04:06:08;;;;;;;17.02;9.52;;;5.80;99.90;;;;;;4974064;28;20440;-73
2022/01/24 04:08:34;;;;;;;16.95;9.75;;;5.70;99.90;;;;;;4992952;28;20058;-74
2022/01/24 04:11:01;;;;;;;19.75;9.93;;;5.80;99.90;;;;;;4993805;28;20049;-74
2022/01/24 04:13:34;;;;;;;18.80;10.27;;;6.50;99.90;;;;;;4976049;28;20054;-74
2022/01/24 04:21:23;;;;;;;18.48;10.23;;;5.90;99.90;;;;;;4994225;28;20120;-74
2022/01/24 04:26:23;;;;;;;18.23;10.32;;;5.80;99.90;;;;;;4977000;28;20054;-73
2022/01/24 04:28:49;;;;;;;17.08;10.20;;;5.70;99.90;;;;;;4978299;28;20410;-73
2022/01/24 04:31:15;;;;;;;16.60;10.00;;;5.80;99.90;;;;;;4962432;28;20046;-74
2022/01/24 04:33:41;;;;;;;17.58;9.73;;;5.70;99.90;;;;;;4991330;28;20387;-73
2022/01/24 04:36:06;;;;;;;19.50;10.73;;;6.00;99.90;;;;;;4990728;28;20106;-73
2022/01/24 04:38:32;;;;;;;17.92;9.98;;;6.50;99.90;;;;;;4988783;28;20053;-73
2022/01/24 04:41:02;;;;;;;18.13;10.02;;;5.70;99.90;;;;;;4979039;28;20050;-73
2022/01/24 04:46:16;;;;;;;19.25;10.15;;;5.80;99.90;;;;;;4984717;28;20197;-74
2022/01/24 04:56:41;;;;;;;16.77;9.50;;;5.70;99.90;;;;;;4985387;28;19984;-73
2022/01/24 04:59:07;;;;;;;18.02;10.07;;;5.80;99.90;;;;;;4972751;28;20042;-73
2022/01/24 05:01:33;;;;;;;17.58;10.40;;;6.40;99.90;;;;;;4991163;28;20052;-74
2022/01/24 05:03:59;;;;;;;19.23;10.57;;;5.70;99.90;;;;;;4971282;28;20052;-73
2022/01/24 05:06:25;;;;;;;20.90;11.18;;;5.70;99.90;;;;;;4976666;28;20054;-73
2022/01/24 05:08:51;;;;;;;22.35;11.05;;;5.70;99.90;;;;;;4977162;28;20129;-73
2022/01/24 05:11:26;;;;;;;21.75;11.35;;;5.70;99.90;;;;;;4988105;28;20038;-73
2022/01/24 05:24:31;;;;;;;22.85;11.38;;;6.00;99.90;;;;;;4984157;28;20050;-73
2022/01/24 05:26:57;;;;;;;20.55;11.50;;;5.70;99.90;;;;;;4987395;28;20056;-73
2022/01/24 05:29:23;;;;;;;24.58;12.70;;;5.70;99.90;;;;;;4984376;28;20489;-73
2022/01/24 05:31:49;;;;;;;23.60;11.82;;;5.70;99.90;;;;;;4971742;28;20051;-73
2022/01/24 05:34:15;;;;;;;19.65;11.07;;;5.70;99.90;;;;;;4986854;28;20085;-74
2022/01/24 05:36:41;;;;;;;22.33;11.07;;;6.00;99.90;;;;;;4991666;28;20046;-73
2022/01/24 05:39:07;;;;;;;22.25;11.65;;;5.70;99.90;;;;;;4974528;28;20097;-73
2022/01/24 05:41:34;;;;;;;19.67;11.23;;;5.70;99.90;;;;;;4957379;28;20054;-74
2022/01/24 05:44:00;;;;;;;23.02;11.90;;;5.70;99.90;;;;;;5003292;28;20054;-73
2022/01/24 05:46:25;;;;;;;29.10;13.95;;;5.70;99.90;;;;;;4990148;28;20426;-73
2022/01/24 05:48:52;;;;;;;25.33;13.57;;;5.70;99.90;;;;;;4958514;28;20096;-73
2022/01/24 05:51:20;;;;;;;25.45;13.45;;;6.40;99.90;;;;;;4989781;28;20064;-73
2022/01/24 05:53:46;;;;;;;23.65;12.32;;;5.80;99.90;;;;;;4974592;28;20058;-74
2022/01/24 05:56:11;;;;;;;24.00;11.88;;;6.10;99.90;;;;;;5004026;28;20053;-74
2022/01/24 05:58:37;;;;;;;19.85;11.48;;;5.70;99.90;;;;;;4973624;28;20476;-74
2022/01/24 06:01:03;;;;;;;21.25;11.88;;;5.70;99.90;;;;;;4971738;28;20446;-74
2022/01/24 06:03:29;;;;;;;24.48;13.35;;;5.90;99.90;;;;;;4988972;28;20042;-74
2022/01/24 06:05:55;;;;;;;25.92;12.75;;;5.80;99.90;;;;;;4987638;28;20081;-74
2022/01/24 06:08:20;;;;;;;23.30;12.30;;;5.70;99.90;;;;;;4991143;28;20491;-74
2022/01/24 06:10:47;;;;;;;24.02;12.02;;;5.70;99.90;;;;;;4989653;28;20050;-73
2022/01/24 06:13:14;;;;;;;23.17;12.43;;;6.50;99.90;;;;;;4957671;28;20180;-74
2022/01/24 06:15:42;;;;;;;24.52;13.00;;;5.70;99.90;;;;;;4989721;28;20077;-74
2022/01/24 06:18:08;;;;;;;26.10;13.40;;;6.10;99.90;;;;;;4987656;28;20579;-73
2022/01/24 06:20:34;;;;;;;26.95;13.15;;;6.10;99.90;;;;;;4992174;28;20133;-74
2022/01/24 06:23:00;;;;;;;25.98;12.80;;;5.70;99.90;;;;;;4987781;28;20672;-74
2022/01/24 06:25:28;;;;;;;24.40;13.50;;;5.70;99.90;;;;;;4989463;28;20054;-74
2022/01/24 06:27:53;;;;;;;24.63;12.70;;;5.70;99.90;;;;;;4990561;28;20042;-74
2022/01/24 06:30:19;;;;;;;25.48;13.52;;;5.70;99.90;;;;;;4993567;28;20108;-74
2022/01/24 06:32:45;;;;;;;28.13;14.07;;;5.70;99.90;;;;;;4975052;28;20057;-74
2022/01/24 06:35:12;;;;;;;26.80;12.82;;;5.70;99.90;;;;;;4958891;28;20088;-76
2022/01/24 06:37:38;;;;;;;26.45;14.73;;;6.10;99.90;;;;;;4971404;28;20077;-74
2022/01/24 06:40:06;;;;;;;25.38;13.80;;;5.70;99.90;;;;;;5005934;28;20046;-74
2022/01/24 06:42:32;;;;;;;25.50;13.07;;;5.70;99.90;;;;;;4976895;28;20069;-74
2022/01/24 06:44:58;;;;;;;27.73;13.48;;;6.00;99.90;;;;;;4996433;28;20606;-74
2022/01/24 06:47:24;;;;;;;26.63;13.48;;;5.70;99.90;;;;;;4992401;28;20042;-74
2022/01/24 06:49:51;;;;;;;25.40;13.45;;;5.60;99.90;;;;;;4978048;28;20671;-74
2022/01/24 06:52:17;;;;;;;25.70;13.32;;;5.80;99.90;;;;;;4975525;28;20138;-74
2022/01/24 06:54:43;;;;;;;26.90;13.88;;;6.00;99.90;;;;;;4993058;28;20176;-74
2022/01/24 06:57:11;;;;;;;27.25;13.68;;;6.20;99.90;;;;;;4991586;28;20050;-74
2022/01/24 06:59:41;;;;;;;27.33;13.60;;;5.70;99.90;;;;;;4993552;28;20047;-74
2022/01/24 07:02:08;;;;;;;29.63;14.13;;;5.70;99.90;;;;;;4977666;28;20050;-74
2022/01/24 07:04:37;;;;;;;25.48;13.52;;;5.70;99.90;;;;;;4991129;28;20133;-75
2022/01/24 07:07:04;;;;;;;26.92;13.73;;;5.60;99.90;;;;;;5000647;28;20054;-75
2022/01/24 07:09:30;;;;;;;25.85;13.32;;;5.60;99.90;;;;;;4973194;28;20584;-73
2022/01/24 07:11:56;;;;;;;25.48;12.00;;;5.60;99.90;;;;;;4979444;28;20046;-72
2022/01/24 07:14:22;;;;;;;26.33;12.63;;;5.60;99.90;;;;;;4994280;28;20052;-72
2022/01/24 07:19:32;;;;;;;24.13;11.93;;;6.30;99.90;;;;;;4990686;28;20057;-73
2022/01/24 07:21:59;;;;;;;23.63;12.20;;;5.60;99.90;;;;;;4974065;28;20500;-73
2022/01/24 07:24:25;;;;;;;27.42;13.43;;;6.10;99.90;;;;;;4991743;28;21237;-73
2022/01/24 07:26:51;;;;;;;25.70;12.98;;;5.60;99.90;;;;;;4976478;28;20108;-73
2022/01/24 07:29:17;;;;;;;22.38;11.65;;;6.00;99.90;;;;;;4972177;28;20046;-73
2022/01/24 07:31:46;;;;;;;22.60;12.02;;;5.80;99.90;;;;;;4991358;28;20470;-73
2022/01/24 07:34:12;;;;;;;23.08;12.27;;;5.60;99.90;;;;;;4991018;28;20054;-73
2022/01/24 07:36:38;;;;;;;21.20;11.63;;;5.60;99.90;;;;;;4992671;28;20140;-73
2022/01/24 07:39:04;;;;;;;26.42;11.88;;;5.60;99.90;;;;;;4994296;28;20052;-73
2022/01/24 07:41:33;;;;;;;22.00;11.70;;;5.60;99.90;;;;;;4989353;28;20038;-73
2022/01/24 07:43:59;;;;;;;22.13;10.85;;;5.60;99.90;;;;;;5005302;28;20124;-73
2022/01/24 07:46:25;;;;;;;23.23;10.93;;;6.30;99.90;;;;;;4991791;28;20057;-73
2022/01/24 07:48:51;;;;;;;21.63;11.20;;;5.60;99.90;;;;;;4991713;28;20049;-73
2022/01/24 07:51:16;;;;;;;21.55;11.50;;;5.60;99.90;;;;;;4991718;28;20045;-73
2022/01/24 07:53:44;;;;;;;16.67;9.63;;;5.70;99.90;;;;;;4992550;28;20065;-73
2022/01/24 07:56:10;;;;;;;19.98;11.23;;;5.70;99.90;;;;;;4978429;28;20076;-73
2022/01/24 07:58:36;;;;;;;20.23;10.68;;;6.20;99.90;;;;;;4983600;28;20251;-73
2022/01/24 08:01:03;;;;;;;21.30;10.48;;;5.70;99.90;;;;;;4996858;28;20430;-73
2022/01/24 08:03:28;;;;;;;22.20;11.57;;;5.70;99.90;;;;;;4990894;28;20408;-73
2022/01/24 08:05:54;;;;;;;20.05;10.52;;;5.70;99.90;;;;;;4992904;28;20054;-73
2022/01/24 08:08:21;;;;;;;22.17;10.60;;;6.20;99.90;;;;;;4993683;28;20049;-73
2022/01/24 08:10:47;;;;;;;21.00;11.10;;;6.00;99.90;;;;;;4991431;28;20046;-73
2022/01/24 08:13:13;;;;;;;20.27;10.30;;;5.70;99.90;;;;;;4974420;28;20049;-73
2022/01/24 08:15:40;;;;;;;22.85;11.45;;;5.70;99.90;;;;;;4984530;28;20358;-73
2022/01/24 08:18:06;;;;;;;20.52;10.45;;;5.70;99.90;;;;;;4987190;28;20050;-73
2022/01/24 08:20:33;;;;;;;20.52;10.88;;;5.70;99.90;;;;;;5007277;28;20096;-73
2022/01/24 08:22:59;;;;;;;18.67;11.05;;;5.70;99.90;;;;;;4990489;28;20054;-73
2022/01/24 08:25:26;;;;;;;20.40;11.13;;;5.80;99.90;;;;;;4974446;28;20076;-75
2022/01/24 08:27:52;;;;;;;19.17;10.90;;;5.70;99.90;;;;;;4992453;28;20497;-73
2022/01/24 08:30:23;;;;;;;21.20;11.10;;;5.80;99.90;;;;;;5006279;28;20046;-73
2022/01/24 08:32:49;;;;;;;20.75;11.15;;;6.10;99.90;;;;;;4974795;28;20475;-73
2022/01/24 08:35:18;;;;;;;23.00;11.40;;;5.80;99.90;;;;;;4990825;28;20050;-73
2022/01/24 08:37:44;;;;;;;21.48;11.23;;;6.10;99.90;;;;;;4973587;28;20054;-72
2022/01/24 08:40:19;;;;;;;21.05;11.07;;;5.80;99.90;;;;;;4989918;28;20042;-73
2022/01/24 08:42:57;;;;;;;23.70;13.45;;;5.80;99.90;;;;;;4989778;28;20498;-73
2022/01/24 08:45:44;;;;;;;21.85;11.10;;;5.50;99.90;;;;;;4961063;28;20053;-74
2022/01/24 08:48:11;;;;;;;21.55;10.90;;;5.90;99.90;;;;;;5005110;28;20120;-73
2022/01/24 08:50:37;;;;;;;21.00;11.45;;;5.80;99.90;;;;;;4974197;28;20068;-73
2022/01/24 08:53:03;;;;;;;21.02;11.00;;;5.80;99.90;;;;;;4989921;28;20475;-73
2022/01/24 08:55:35;;;;;;;24.10;10.98;;;6.60;99.90;;;;;;4973860;28;20061;-72
2022/01/24 08:58:01;;;;;;;23.88;11.70;;;5.90;99.90;;;;;;4989844;28;20038;-73
2022/01/24 09:00:28;;;;;;;21.15;11.18;;;6.30;99.90;;;;;;4960029;28;20076;-73
2022/01/24 09:02:54;;;;;;;23.70;12.02;;;5.90;99.90;;;;;;4993966;28;20055;-73
2022/01/24 09:05:24;;;;;;;21.75;11.68;;;5.90;99.90;;;;;;4987310;28;20068;-73
2022/01/24 09:07:50;;;;;;;23.63;12.05;;;6.30;99.90;;;;;;4991995;28;20046;-73
2022/01/24 09:10:18;;;;;;;21.98;11.68;;;5.90;99.90;;;;;;4989969;28;20099;-74
2022/01/24 09:12:44;;;;;;;23.35;14.32;;;5.90;99.90;;;;;;4994053;28;20076;-73
2022/01/24 09:15:10;;;;;;;20.48;11.98;;;6.80;99.90;;;;;;4975696;28;20543;-73
2022/01/24 09:17:36;;;;;;;25.40;13.27;;;6.60;99.90;;;;;;4987697;28;20042;-73
2022/01/24 09:20:04;;;;;;;26.10;12.75;;;6.00;99.90;;;;;;4977116;28;20491;-73
2022/01/24 09:22:33;;;;;;;26.55;13.52;;;6.00;99.90;;;;;;4979821;28;20482;-73
2022/01/24 09:24:59;;;;;;;28.60;15.70;;;6.00;99.90;;;;;;4998775;28;20491;-73
2022/01/24 09:27:25;;;;;;;25.63;13.80;;;6.50;99.90;;;;;;4987733;28;20057;-73
2022/01/24 09:29:50;;;;;;;27.70;13.63;;;6.10;99.90;;;;;;4991647;28;20065;-73
2022/01/24 09:32:16;;;;;;;28.15;13.98;;;6.10;99.90;;;;;;4986385;28;20053;-73
2022/01/24 09:34:42;;;;;;;27.27;13.73;;;6.10;99.90;;;;;;4976237;28;20047;-73
2022/01/24 09:37:08;;;;;;;32.85;17.17;;;6.20;99.90;;;;;;4976798;28;20042;-73
2022/01/24 09:39:34;;;;;;;29.88;15.10;;;6.10;99.90;;;;;;4973774;28;20488;-73
2022/01/24 09:42:00;;;;;;;32.22;16.17;;;6.10;99.90;;;;;;4973256;28;20399;-72
2022/01/24 09:44:26;;;;;;;28.55;14.20;;;6.40;99.90;;;;;;4972896;28;20042;-77
2022/01/24 09:46:52;;;;;;;31.75;14.65;;;6.10;99.90;;;;;;4989629;28;20133;-80
2022/01/24 09:49:17;;;;;;;36.15;16.88;;;6.10;99.90;;;;;;4973614;28;20121;-82
2022/01/24 09:51:44;;;;;;;40.63;18.38;;;6.20;99.90;;;;;;4956665;28;20108;-80
2022/01/24 09:54:13;;;;;;;48.33;21.30;;;6.30;99.90;;;;;;4989260;28;20060;-80
2022/01/24 09:56:39;;;;;;;42.88;19.55;;;6.40;99.90;;;;;;5005594;28;20081;-79
2022/01/24 09:59:05;;;;;;;41.33;19.35;;;6.10;99.90;;;;;;4988821;28;20045;-79
2022/01/24 10:01:33;;;;;;;49.15;21.65;;;6.10;99.90;;;;;;4988607;28;20054;-76
2022/01/24 10:04:10;;;;;;;54.25;23.27;;;6.20;99.90;;;;;;4988219;28;20058;-78
2022/01/24 10:07:11;;;;;;;55.40;23.95;;;6.20;99.90;;;;;;4988979;28;20050;-81
2022/01/24 10:09:49;;;;;;;57.50;25.40;;;6.20;99.90;;;;;;4989486;28;20468;-75
2022/01/24 10:16:24;;;;;;;57.47;25.23;;;6.20;99.90;;;;;;4969386;28;20086;-77
2022/01/24 10:18:07;;;;;;;57.70;24.10;;;6.30;99.90;;;;;;4989383;28;20102;-77
2022/01/24 10:20:39;;;;;;;61.70;27.20;;;6.30;99.90;;;;;;4989532;28;20062;-76
2022/01/24 10:23:16;;;;;;;59.53;26.88;;;6.30;99.90;;;;;;4989338;28;20128;-76
2022/01/24 10:26:02;;;;;;;62.00;27.13;;;6.40;99.90;;;;;;4988599;28;20042;-76
2022/01/24 10:28:27;;;;;;;69.80;28.00;;;6.40;99.90;;;;;;4989274;28;20050;-77
2022/01/24 10:31:25;;;;;;;64.60;27.55;;;6.40;99.90;;;;;;4989331;28;20097;-76
2022/01/24 10:34:05;;;;;;;72.00;29.27;;;6.40;99.90;;;;;;4973403;28;20475;-76
2022/01/24 10:36:42;;;;;;;75.35;30.45;;;6.40;99.90;;;;;;4988377;28;20403;-76
2022/01/24 10:39:29;;;;;;;79.80;32.60;;;6.40;99.90;;;;;;4989375;28;20067;-77
2022/01/24 10:45:00;;;;;;;79.38;31.85;;;6.40;99.90;;;;;;4989411;28;20112;-77
2022/01/24 10:47:32;;;;;;;82.22;32.15;;;6.40;99.90;;;;;;4988882;28;20504;-77
2022/01/24 10:50:00;;;;;;;78.57;32.88;;;6.40;99.90;;;;;;4990308;28;20042;-76
2022/01/24 10:52:28;;;;;;;79.68;34.17;;;6.40;99.90;;;;;;4972262;28;20050;-76
2022/01/24 10:55:24;;;;;;;82.43;33.40;;;6.40;99.90;;;;;;4992892;28;20132;-76
2022/01/24 10:58:14;;;;;;;81.97;33.35;;;6.50;99.90;;;;;;4990166;28;20043;-76
2022/01/24 11:00:41;;;;;;;85.70;33.85;;;6.50;99.90;;;;;;4991651;28;20129;-76
2022/01/24 11:03:15;;;;;;;91.18;35.70;;;6.50;99.90;;;;;;4956156;28;20050;-76
2022/01/24 11:05:43;;;;;;;88.10;35.05;;;6.60;99.90;;;;;;4988820;28;20074;-76
2022/01/24 11:08:11;;;;;;;88.00;35.72;;;6.60;99.90;;;;;;5004651;28;20042;-76
2022/01/24 11:10:40;;;;;;;89.68;35.65;;;6.60;99.90;;;;;;4988701;28;20046;-76
2022/01/24 11:13:06;;;;;;;93.70;37.65;;;6.60;99.90;;;;;;4991040;28;20042;-75
2022/01/24 11:15:34;;;;;;;92.78;36.75;;;6.60;99.90;;;;;;4991732;28;20129;-76
2022/01/24 11:18:01;;;;;;;87.55;34.42;;;6.60;99.90;;;;;;4992539;28;20049;-75
2022/01/24 11:20:31;;;;;;;88.20;33.85;;;6.60;99.90;;;;;;4992067;28;20503;-76
2022/01/24 11:23:01;;;;;;;80.88;32.30;;;6.60;99.90;;;;;;4975941;28;20038;-76
2022/01/24 11:25:30;;;;;;;86.53;33.47;;;6.60;99.90;;;;;;4991131;28;20066;-76
2022/01/24 11:27:56;;;;;;;79.85;31.75;;;6.60;99.90;;;;;;4975492;28;20089;-75
2022/01/24 11:30:28;;;;;;;88.32;32.13;;;6.60;99.90;;;;;;4991900;28;20082;-75
2022/01/24 11:33:04;;;;;;;83.57;34.03;;;6.80;99.90;;;;;;4992158;28;20046;-75
2022/01/24 11:35:43;;;;;;;91.10;34.88;;;6.60;99.90;;;;;;4991535;28;20081;-75
2022/01/24 11:38:32;;;;;;;83.20;31.42;;;6.60;99.90;;;;;;5008234;28;20124;-77
2022/01/24 11:41:01;;;;;;;85.72;30.60;;;6.60;99.90;;;;;;4990711;28;20129;-76
2022/01/24 11:43:34;;;;;;;86.13;33.80;;;6.60;99.90;;;;;;4996345;28;20392;-75
2022/01/24 11:46:06;;;;;;;90.75;34.72;;;6.60;99.90;;;;;;4984466;28;20042;-76
2022/01/24 11:48:33;;;;;;;84.45;32.65;;;6.60;99.90;;;;;;4996077;28;20422;-76
2022/01/24 11:51:11;;;;;;;75.07;29.77;;;6.70;99.90;;;;;;4991979;28;20130;-76
2022/01/24 11:53:42;;;;;;;76.78;29.05;;;6.70;99.90;;;;;;4976676;28;20081;-76
2022/01/24 11:56:24;;;;;;;84.63;31.65;;;6.60;99.90;;;;;;4993002;28;20042;-76
2022/01/24 11:58:50;;;;;;;;;;;6.60;99.90;;;;;;4993395;28;20056;-77
2022/01/24 12:01:37;;;;;;;86.63;31.55;;;6.70;99.90;;;;;;4987481;28;19922;-83
2022/01/24 12:04:03;;;;;;;78.57;30.83;;;6.70;99.90;;;;;;4977327;28;20042;-77
2022/01/24 12:06:29;;;;;;;80.35;31.08;;;6.70;99.90;;;;;;4992121;28;20046;-84
2022/01/24 12:09:05;;;;;;;82.70;33.42;;;6.70;99.90;;;;;;4992479;28;20184;-81
2022/01/24 12:11:35;;;;;;;83.75;32.08;;;6.70;99.90;;;;;;4996037;28;20050;-79
2022/01/24 12:14:13;;;;;;;81.88;33.58;;;7.20;99.90;;;;;;4993016;28;20046;-74
2022/01/24 12:16:44;;;;;;;78.38;32.17;;;6.50;99.90;;;;;;4990706;28;20104;-77
2022/01/24 12:19:11;;;;;;;80.18;31.05;;;6.70;99.90;;;;;;4978365;28;20048;-75
2022/01/24 12:21:41;;;;;;;76.07;30.83;;;6.70;99.90;;;;;;4953123;28;20047;-73
2022/01/24 12:24:11;;;;;;;77.15;27.75;;;6.70;99.90;;;;;;4988534;28;20078;-73
2022/01/24 12:27:04;;;;;;;76.63;30.45;;;6.70;99.90;;;;;;4990142;28;20550;-73
2022/01/24 12:29:31;;;;;;;84.53;32.40;;;6.70;99.90;;;;;;4974064;28;20105;-73
2022/01/24 12:31:59;;;;;;;77.22;30.75;;;6.70;99.90;;;;;;4974122;28;20042;-72
2022/01/24 12:34:26;;;;;;;83.35;30.98;;;6.70;99.90;;;;;;4974568;28;20053;-76
2022/01/24 12:37:00;;;;;;;74.00;29.90;;;6.70;99.90;;;;;;4990606;28;20053;-73
2022/01/24 12:39:47;;;;;;;77.20;33.00;;;6.70;99.90;;;;;;4974672;28;20042;-77
2022/01/24 12:42:24;;;;;;;79.72;30.50;;;6.70;99.90;;;;;;4989816;28;20053;-74
2022/01/24 12:47:24;;;;;;;64.20;27.15;;;6.60;99.90;;;;;;4988197;28;20053;-79
2022/01/24 12:49:51;;;;;;;68.43;28.95;;;6.60;99.90;;;;;;4974197;28;20587;-78
2022/01/24 12:52:20;;;;;;;65.65;27.58;;;6.60;99.90;;;;;;4959103;28;20362;-78
2022/01/24 12:54:53;;;;;;;67.35;27.83;;;6.60;99.90;;;;;;4992270;28;20104;-77
2022/01/24 12:57:22;;;;;;;63.22;27.80;;;7.40;99.90;;;;;;4967571;28;20141;-77
2022/01/24 13:00:16;;;;;;;64.70;28.42;;;6.60;99.90;;;;;;4996475;28;20451;-81
2022/01/24 13:02:41;;;;;;;70.03;28.35;;;6.60;99.90;;;;;;4993398;28;20129;-83
2022/01/24 13:05:12;;;;;;;62.63;28.10;;;6.60;99.90;;;;;;4992255;28;20574;-78
2022/01/24 13:07:39;;;;;;;61.30;24.42;;;6.60;99.90;;;;;;4972741;28;20133;-79
2022/01/24 13:10:18;;;;;;;60.15;27.70;;;6.60;99.90;;;;;;4969396;28;20488;-83
2022/01/24 13:12:44;;;;;;;66.57;28.67;;;6.60;99.90;;;;;;4986893;28;20050;-80
2022/01/24 13:20:23;;;;;;;62.17;27.15;;;6.60;99.90;;;;;;4974912;28;20046;-82
2022/01/24 13:21:16;;;;;;;69.25;26.85;;;6.60;99.90;;;;;;5016614;28;20058;-78
2022/01/24 13:23:43;;;;;;;64.15;28.25;;;6.60;99.90;;;;;;4997056;28;20093;-78
2022/01/24 13:26:10;;;;;;;58.50;26.55;;;6.50;99.90;;;;;;5000198;28;20081;-83
2022/01/24 13:28:35;;;;;;;60.92;24.63;;;6.50;99.90;;;;;;4986570;28;20440;-81
2022/01/24 13:31:03;;;;;;;61.42;27.40;;;6.40;99.90;;;;;;4993406;28;20085;-82
2022/01/24 13:33:33;;;;;;;56.03;25.33;;;6.40;99.90;;;;;;4993496;28;20046;-81
2022/01/24 13:36:05;;;;;;;56.20;25.90;;;6.40;99.90;;;;;;4988834;28;20057;-79
2022/01/24 13:38:31;;;;;;;;;;;6.40;99.90;;;;;;4989477;28;20042;-80
2022/01/24 13:41:08;;;;;;;53.80;25.88;;;6.40;99.90;;;;;;4987732;28;19925;-76
2022/01/24 13:44:08;;;;;;;53.20;23.60;;;6.40;99.90;;;;;;4972394;28;20046;-79
2022/01/24 13:46:39;;;;;;;61.95;27.02;;;6.30;99.90;;;;;;4987868;28;20062;-81
2022/01/24 13:49:08;;;;;;;65.93;29.50;;;6.30;99.90;;;;;;4988851;28;20112;-78
2022/01/24 13:51:48;;;;;;;68.65;29.83;;;6.50;99.90;;;;;;4972258;28;20061;-78
2022/01/24 13:54:22;;;;;;;54.97;23.35;;;6.30;99.90;;;;;;4972412;28;20052;-78
2022/01/24 13:57:04;;;;;;;61.55;28.27;;;6.30;99.90;;;;;;4987699;28;20046;-80
2022/01/24 13:59:32;;;;;;;63.90;29.92;;;6.30;99.90;;;;;;4972646;28;20068;-84
2022/01/24 14:02:01;;;;;;;70.85;31.48;;;6.20;99.90;;;;;;4989035;28;20040;-80
2022/01/24 14:04:35;;;;;;;57.80;27.05;;;6.20;99.90;;;;;;4988746;28;20050;-80
2022/01/24 14:07:09;;;;;;;58.38;27.02;;;6.20;99.90;;;;;;4988647;28;20042;-77
2022/01/24 14:09:37;;;;;;;60.17;27.70;;;6.20;99.90;;;;;;5004245;28;20058;-79
2022/01/24 14:12:05;;;;;;;62.63;29.67;;;6.20;99.90;;;;;;5004429;28;20495;-77
2022/01/24 14:20:07;;;;;;;50.15;22.90;;;6.10;99.90;;;;;;4988838;28;20125;-79
2022/01/24 14:22:42;;;;;;;52.75;25.23;;;6.10;99.90;;;;;;4988808;28;20066;-82
2022/01/24 14:25:31;;;;;;;63.38;30.58;;;6.10;99.90;;;;;;4972135;28;20039;-82
2022/01/24 14:28:07;;;;;;;63.80;28.55;;;6.10;99.90;;;;;;4988821;28;20137;-78
2022/01/24 14:30:41;;;;;;;53.30;24.13;;;6.10;99.90;;;;;;4989219;28;20042;-81
2022/01/24 14:33:19;;;;;;;56.40;25.80;;;6.10;99.90;;;;;;4957291;28;20503;-77
2022/01/24 14:35:56;;;;;;;54.80;26.33;;;6.10;99.90;;;;;;4988276;28;20049;-77
2022/01/24 14:38:53;;;;;;;60.28;26.27;;;6.10;99.90;;;;;;4988996;28;20065;-79
2022/01/24 14:41:33;;;;;;;60.97;28.60;;;6.00;99.90;;;;;;4988226;28;20051;-76
2022/01/24 14:46:46;;;;;;;54.95;24.38;;;6.00;99.90;;;;;;4988599;28;20065;-75
2022/01/24 14:49:20;;;;;;;63.03;28.75;;;6.20;99.90;;;;;;4975638;28;20058;-75
2022/01/24 14:51:46;;;;;;;69.72;30.88;;;5.40;99.90;;;;;;5007839;28;20463;-75